Time;durP1;ratioP1;P1;durP2;ratioP2;P2;SDS_P1;SDS_P2;PMS_P1;PMS_P2;Temp;Humidity;BMP_temperature;BMP_pressure;BME280_temperature;BME280_humidity;BME280_pressure;Samples;Min_cycle;Max_cycle;Signal;HPM_P1;HPM_P2
2022/11/17 00:01:59;;;;;;;53.20;30.73;;;9.10;99.90;;;;;;6228169;28;20456;-60
2022/11/17 00:05:02;;;;;;;65.30;34.13;;;9.00;99.90;;;;;;6226558;28;20478;-60
2022/11/17 00:08:05;;;;;;;53.37;30.23;;;9.10;99.90;;;;;;6224727;28;20456;-59
2022/11/17 00:11:10;;;;;;;48.40;28.10;;;9.10;99.90;;;;;;6225611;28;20436;-61
2022/11/17 00:17:34;;;;;;;39.77;25.00;;;9.00;99.90;;;;;;6225473;28;20757;-59
2022/11/17 00:23:59;;;;;;;34.60;22.67;;;9.10;99.90;;;;;;6225503;28;20472;-61
2022/11/17 00:27:03;;;;;;;43.50;24.40;;;9.20;99.90;;;;;;6225333;28;20479;-60
2022/11/17 00:30:08;;;;;;;38.13;23.00;;;9.10;99.90;;;;;;6225113;28;20490;-59
2022/11/17 00:36:33;;;;;;;41.90;24.77;;;9.20;99.90;;;;;;6225536;28;20480;-59
2022/11/17 00:39:36;;;;;;;37.50;24.40;;;9.20;99.90;;;;;;6225407;28;20775;-59
2022/11/17 00:42:40;;;;;;;31.63;23.50;;;9.20;99.90;;;;;;6225311;28;20490;-60
2022/11/17 00:45:43;;;;;;;25.17;19.70;;;9.20;99.90;;;;;;6225086;28;20546;-61
2022/11/17 00:48:47;;;;;;;29.03;22.40;;;9.20;99.90;;;;;;6220729;28;20472;-60
2022/11/17 00:51:50;;;;;;;27.27;22.00;;;9.30;99.90;;;;;;6225316;28;20479;-60
2022/11/17 00:54:53;;;;;;;27.20;21.00;;;9.30;99.90;;;;;;6225052;28;20484;-59
2022/11/17 00:57:57;;;;;;;23.53;20.03;;;9.30;99.90;;;;;;6224672;28;20479;-60
2022/11/17 01:01:00;;;;;;;24.97;21.40;;;9.40;99.90;;;;;;6224715;28;20583;-60
2022/11/17 01:04:05;;;;;;;29.00;21.00;;;9.40;99.90;;;;;;6225213;28;20491;-59
2022/11/17 01:07:08;;;;;;;25.57;20.77;;;9.40;99.90;;;;;;6224931;28;20465;-58
2022/11/17 01:10:11;;;;;;;27.53;19.97;;;9.40;99.90;;;;;;6223258;28;20472;-60
2022/11/17 01:13:17;;;;;;;27.60;21.77;;;9.30;99.90;;;;;;6222566;28;20538;-60
2022/11/17 01:16:21;;;;;;;22.73;18.73;;;9.20;99.90;;;;;;6223234;28;20881;-59
2022/11/17 01:19:24;;;;;;;22.37;17.27;;;9.20;99.90;;;;;;6222607;28;20483;-60
2022/11/17 01:22:28;;;;;;;25.93;19.00;;;9.20;99.90;;;;;;6235907;28;20476;-60
2022/11/17 01:25:31;;;;;;;22.80;18.57;;;9.20;99.90;;;;;;6223111;28;20487;-60
2022/11/17 01:28:36;;;;;;;26.93;21.20;;;9.30;99.90;;;;;;6224274;28;20475;-60
2022/11/17 01:31:42;;;;;;;24.63;19.63;;;9.30;99.90;;;;;;6223313;28;20476;-60
2022/11/17 01:34:45;;;;;;;25.10;19.17;;;9.30;99.90;;;;;;6221382;28;20555;-64
2022/11/17 01:37:48;;;;;;;23.80;17.80;;;9.30;99.90;;;;;;6224139;28;20479;-60
2022/11/17 01:40:51;;;;;;;20.33;17.67;;;9.40;99.90;;;;;;6223199;28;20479;-60
2022/11/17 01:43:57;;;;;;;22.37;17.87;;;9.50;99.90;;;;;;6223279;28;20575;-60
2022/11/17 01:47:01;;;;;;;20.63;18.40;;;9.50;99.90;;;;;;6222869;28;20475;-60
2022/11/17 01:50:12;;;;;;;23.07;18.57;;;9.50;99.90;;;;;;6219786;28;20455;-60
2022/11/17 01:53:18;;;;;;;26.43;19.00;;;9.50;99.90;;;;;;6223177;28;20444;-60
2022/11/17 01:56:27;;;;;;;21.27;18.77;;;9.40;99.90;;;;;;6223339;28;20471;-60
2022/11/17 01:59:35;;;;;;;24.57;18.17;;;9.50;99.90;;;;;;6224082;28;20468;-60
2022/11/17 02:02:40;;;;;;;25.43;18.30;;;9.50;99.90;;;;;;6223272;28;20468;-60
2022/11/17 02:05:50;;;;;;;19.40;16.73;;;9.50;99.90;;;;;;6223588;28;20480;-60
2022/11/17 02:08:54;;;;;;;23.63;18.63;;;9.60;99.90;;;;;;6223438;28;20480;-60
2022/11/17 02:11:59;;;;;;;23.20;17.60;;;9.60;99.90;;;;;;6224446;28;20507;-60
2022/11/17 02:15:05;;;;;;;21.20;17.00;;;9.60;99.90;;;;;;6223844;28;20812;-60
2022/11/17 02:18:08;;;;;;;21.33;16.60;;;9.60;99.90;;;;;;6224179;28;20476;-60
2022/11/17 02:21:27;;;;;;;22.40;17.37;;;9.60;99.90;;;;;;6224391;28;20538;-60
2022/11/17 02:24:58;;;;;;;21.30;16.63;;;9.60;99.90;;;;;;6224381;28;20493;-60
2022/11/17 02:28:15;;;;;;;22.07;18.13;;;9.70;99.90;;;;;;6223863;28;20479;-60
2022/11/17 02:31:25;;;;;;;21.77;16.43;;;9.70;99.90;;;;;;6226289;28;20510;-60
2022/11/17 02:34:38;;;;;;;21.57;17.23;;;9.60;99.90;;;;;;6227872;28;20480;-60
2022/11/17 02:37:50;;;;;;;23.53;19.17;;;9.50;99.90;;;;;;6227758;28;20499;-60
2022/11/17 02:40:58;;;;;;;24.47;17.87;;;9.50;99.90;;;;;;6227851;28;20480;-60
2022/11/17 02:44:10;;;;;;;22.60;18.53;;;9.40;99.90;;;;;;6227911;28;20464;-60
2022/11/17 02:47:18;;;;;;;21.27;17.90;;;9.40;99.90;;;;;;6228351;28;20464;-60
2022/11/17 02:50:23;;;;;;;23.80;17.90;;;9.40;99.90;;;;;;6228053;28;20464;-60
2022/11/17 02:53:31;;;;;;;23.53;18.53;;;9.40;99.90;;;;;;6227833;28;20558;-60
2022/11/17 02:56:40;;;;;;;25.87;18.07;;;9.50;99.90;;;;;;6227721;28;20490;-61
2022/11/17 02:59:48;;;;;;;24.77;18.67;;;9.50;99.90;;;;;;6227658;28;20476;-60
2022/11/17 03:03:10;;;;;;;23.53;18.40;;;9.50;99.90;;;;;;6227798;28;20799;-60
2022/11/17 03:06:21;;;;;;;25.57;18.93;;;9.40;99.90;;;;;;6227768;28;20972;-60
2022/11/17 03:09:35;;;;;;;27.53;21.20;;;9.50;99.90;;;;;;6227859;28;20660;-60
2022/11/17 03:12:45;;;;;;;23.77;19.40;;;9.50;99.90;;;;;;6227831;28;20835;-60
2022/11/17 03:15:56;;;;;;;24.03;17.63;;;9.40;99.90;;;;;;6227689;28;20480;-60
2022/11/17 03:19:06;;;;;;;26.10;20.07;;;9.40;99.90;;;;;;6227452;28;20496;-60
2022/11/17 03:22:14;;;;;;;23.83;18.47;;;9.40;99.90;;;;;;6227170;28;20539;-60
2022/11/17 03:25:20;;;;;;;22.87;18.47;;;9.40;99.90;;;;;;6227182;28;20493;-60
2022/11/17 03:28:28;;;;;;;21.63;16.80;;;9.50;99.90;;;;;;6227880;28;20483;-60
2022/11/17 03:31:33;;;;;;;20.33;17.70;;;9.50;99.90;;;;;;6228076;28;20472;-60
2022/11/17 03:34:42;;;;;;;22.47;17.90;;;9.50;99.90;;;;;;6227585;28;20987;-60
2022/11/17 03:37:48;;;;;;;22.67;17.87;;;9.50;99.90;;;;;;6227629;28;21003;-60
2022/11/17 03:40:54;;;;;;;21.53;17.57;;;9.50;99.90;;;;;;6227679;28;20484;-60
2022/11/17 03:43:58;;;;;;;23.67;18.57;;;9.40;99.90;;;;;;6227978;28;20491;-60
2022/11/17 03:47:05;;;;;;;26.13;19.63;;;9.30;99.90;;;;;;6227605;28;20766;-60
2022/11/17 03:50:33;;;;;;;24.30;16.67;;;9.40;99.90;;;;;;6227595;28;20468;-60
2022/11/17 03:53:36;;;;;;;20.87;15.20;;;9.30;99.90;;;;;;6227191;28;20465;-60
2022/11/17 03:56:49;;;;;;;18.50;14.47;;;9.30;99.90;;;;;;6227170;28;20504;-60
2022/11/17 03:59:55;;;;;;;20.73;15.87;;;9.30;99.90;;;;;;6226541;28;20495;-60
2022/11/17 04:03:00;;;;;;;19.30;15.60;;;9.20;99.90;;;;;;6227128;28;20472;-60
2022/11/17 04:06:03;;;;;;;18.80;14.47;;;9.10;99.90;;;;;;6227125;28;20495;-60
2022/11/17 04:09:06;;;;;;;17.20;12.83;;;9.10;99.90;;;;;;6226488;28;20464;-60
2022/11/17 04:18:51;;;;;;;15.67;13.33;;;9.10;99.90;;;;;;6226117;28;20476;-60
2022/11/17 04:22:01;;;;;;;17.57;13.87;;;9.00;99.90;;;;;;6226258;28;20859;-60
2022/11/17 04:25:05;;;;;;;16.33;13.23;;;9.00;99.90;;;;;;6226587;28;20482;-60
2022/11/17 04:31:30;;;;;;;16.90;13.90;;;8.90;99.90;;;;;;6226472;28;20471;-64
2022/11/17 04:34:34;;;;;;;17.67;13.23;;;8.90;99.90;;;;;;6226074;28;20485;-60
2022/11/17 04:37:37;;;;;;;18.93;13.87;;;8.80;99.90;;;;;;6225115;28;20476;-61
2022/11/17 04:41:52;;;;;;;19.10;13.47;;;8.90;99.90;;;;;;6225688;28;20481;-61
2022/11/17 04:44:04;;;;;;;15.63;12.33;;;8.80;99.90;;;;;;6224872;28;20487;-61
2022/11/17 04:47:08;;;;;;;16.53;11.80;;;8.80;99.90;;;;;;6225366;28;20459;-61
2022/11/17 04:50:12;;;;;;;15.37;12.77;;;8.80;99.90;;;;;;6225893;28;20924;-61
2022/11/17 04:53:15;;;;;;;19.00;12.10;;;8.90;99.90;;;;;;6225220;28;20459;-61
2022/11/17 04:56:19;;;;;;;13.97;12.47;;;8.80;99.90;;;;;;6225636;28;21379;-60
2022/11/17 04:59:23;;;;;;;19.50;15.00;;;8.80;99.90;;;;;;6225604;28;20967;-61
2022/11/17 05:02:26;;;;;;;17.90;14.10;;;8.80;99.90;;;;;;6217219;28;20551;-61
2022/11/17 05:05:30;;;;;;;24.87;18.43;;;8.80;99.90;;;;;;6225308;28;20492;-61
2022/11/17 05:08:35;;;;;;;23.80;18.40;;;8.70;99.90;;;;;;6224770;28;20847;-60
2022/11/17 05:14:59;;;;;;;20.47;17.17;;;8.70;99.90;;;;;;6225299;28;20472;-60
2022/11/17 05:18:01;;;;;;;21.13;17.27;;;8.70;99.90;;;;;;6225393;28;20487;-60
2022/11/17 05:21:07;;;;;;;24.40;17.87;;;8.70;99.90;;;;;;6225551;28;20475;-60
2022/11/17 05:24:13;;;;;;;25.00;18.03;;;8.70;99.90;;;;;;6225606;28;20499;-60
2022/11/17 05:27:16;;;;;;;25.40;19.77;;;8.70;99.90;;;;;;6225209;28;20487;-60
2022/11/17 05:30:19;;;;;;;24.37;18.10;;;8.80;99.90;;;;;;6225093;28;20682;-60
2022/11/17 05:33:22;;;;;;;22.33;16.60;;;8.80;99.90;;;;;;6224770;28;20483;-60
2022/11/17 05:36:28;;;;;;;23.10;17.20;;;8.80;99.90;;;;;;6224661;28;20471;-60
2022/11/17 05:39:31;;;;;;;25.27;17.63;;;8.80;99.90;;;;;;6224836;28;20475;-60
2022/11/17 05:42:34;;;;;;;25.90;18.20;;;8.70;99.90;;;;;;6224541;28;20471;-60
2022/11/17 05:45:37;;;;;;;25.60;19.07;;;8.70;99.90;;;;;;6224884;28;20791;-60
2022/11/17 05:48:41;;;;;;;27.90;20.60;;;8.70;99.90;;;;;;6224497;28;20550;-60
2022/11/17 05:51:45;;;;;;;28.37;20.03;;;8.60;99.90;;;;;;6224522;28;20505;-60
2022/11/17 05:54:54;;;;;;;30.63;20.10;;;8.50;99.90;;;;;;6224471;28;20484;-60
2022/11/17 05:58:01;;;;;;;27.77;19.83;;;8.50;99.90;;;;;;6224938;28;20974;-61
2022/11/17 06:01:06;;;;;;;31.30;23.03;;;8.40;99.90;;;;;;6224519;28;20483;-60
2022/11/17 06:04:10;;;;;;;26.83;20.53;;;8.40;99.90;;;;;;6224275;28;20538;-60
2022/11/17 06:07:16;;;;;;;33.43;20.30;;;8.40;99.90;;;;;;6228640;28;20477;-60
2022/11/17 06:10:20;;;;;;;27.27;20.10;;;8.40;99.90;;;;;;6231299;28;20468;-60
2022/11/17 06:13:27;;;;;;;33.63;21.60;;;8.50;99.90;;;;;;6233819;28;20467;-60
2022/11/17 06:16:35;;;;;;;36.57;22.00;;;8.50;99.90;;;;;;6229266;28;20964;-61
2022/11/17 06:19:43;;;;;;;32.07;20.33;;;8.60;99.90;;;;;;6228814;28;20542;-60
2022/11/17 06:22:49;;;;;;;30.80;20.03;;;8.60;99.90;;;;;;6228477;28;20502;-61
2022/11/17 06:25:52;;;;;;;32.07;20.17;;;8.70;99.90;;;;;;6228535;28;20486;-60
2022/11/17 06:28:56;;;;;;;29.27;21.87;;;8.80;99.90;;;;;;6228535;28;20511;-60
2022/11/17 06:32:00;;;;;;;29.77;21.20;;;8.80;99.90;;;;;;6228690;28;20514;-60
2022/11/17 06:35:07;;;;;;;32.73;22.57;;;8.80;99.90;;;;;;6228811;28;20464;-60
2022/11/17 06:38:12;;;;;;;29.80;20.40;;;8.90;99.90;;;;;;6228336;28;20440;-61
2022/11/17 06:41:15;;;;;;;28.97;20.53;;;9.00;99.90;;;;;;6228749;28;20483;-60
2022/11/17 06:44:18;;;;;;;26.93;20.07;;;9.00;99.90;;;;;;6228429;28;20936;-60
2022/11/17 06:47:21;;;;;;;30.93;20.77;;;9.00;99.90;;;;;;6228214;28;20935;-60
2022/11/17 06:50:24;;;;;;;34.27;22.30;;;9.00;99.90;;;;;;6228297;28;20534;-60
2022/11/17 06:53:29;;;;;;;29.50;20.30;;;9.00;99.90;;;;;;6228070;28;20456;-60
2022/11/17 06:56:32;;;;;;;29.63;19.23;;;9.00;99.90;;;;;;6228287;28;20494;-60
2022/11/17 06:59:35;;;;;;;27.13;19.83;;;9.10;99.90;;;;;;6227253;28;20991;-60
2022/11/17 07:02:38;;;;;;;28.20;20.80;;;9.20;99.90;;;;;;6227331;28;20773;-60
2022/11/17 07:05:41;;;;;;;26.47;19.77;;;9.20;99.90;;;;;;6227504;28;20480;-60
2022/11/17 07:08:46;;;;;;;23.60;18.90;;;9.20;99.90;;;;;;6227579;28;20487;-60
2022/11/17 07:11:49;;;;;;;31.23;21.10;;;9.20;99.90;;;;;;6218880;28;20550;-60
2022/11/17 07:14:52;;;;;;;27.17;19.60;;;9.20;99.90;;;;;;6227118;28;20480;-60
2022/11/17 07:17:55;;;;;;;28.30;20.77;;;9.30;99.90;;;;;;6226821;28;20804;-60
2022/11/17 07:21:03;;;;;;;25.23;18.23;;;9.40;99.90;;;;;;6226736;28;20484;-60
2022/11/17 07:24:08;;;;;;;27.70;21.10;;;9.50;99.90;;;;;;6227422;28;20542;-60
2022/11/17 07:27:11;;;;;;;24.40;19.20;;;9.50;99.90;;;;;;6227099;28;20816;-60
2022/11/17 07:30:14;;;;;;;29.90;19.13;;;9.50;99.90;;;;;;6227268;28;20476;-60
2022/11/17 07:33:18;;;;;;;24.93;18.33;;;9.60;99.90;;;;;;6226848;28;20967;-61
2022/11/17 07:36:21;;;;;;;23.60;18.77;;;9.90;99.90;;;;;;6226612;28;20468;-60
2022/11/17 07:39:25;;;;;;;24.10;18.37;;;10.20;99.90;;;;;;6227129;28;20944;-60
2022/11/17 07:42:28;;;;;;;26.73;18.77;;;10.60;99.90;;;;;;6226444;28;20951;-60
2022/11/17 07:45:32;;;;;;;23.47;18.10;;;10.80;99.90;;;;;;6226626;28;20476;-60
2022/11/17 07:48:35;;;;;;;22.00;16.40;;;10.90;99.90;;;;;;6226357;28;20975;-60
2022/11/17 07:51:38;;;;;;;21.13;16.60;;;11.10;99.90;;;;;;6226477;28;20562;-61
2022/11/17 07:54:43;;;;;;;23.87;17.00;;;11.20;99.90;;;;;;6226578;28;20488;-60
2022/11/17 07:57:46;;;;;;;20.07;15.40;;;11.30;99.90;;;;;;6226197;28;20468;-60
2022/11/17 08:00:49;;;;;;;22.20;17.20;;;11.30;99.90;;;;;;6226426;28;20484;-60
2022/11/17 08:03:52;;;;;;;23.73;17.93;;;11.40;99.90;;;;;;6226469;28;20784;-60
2022/11/17 08:06:56;;;;;;;23.93;16.77;;;11.60;99.90;;;;;;6226069;28;20546;-61
2022/11/17 08:10:00;;;;;;;25.87;16.90;;;11.50;99.90;;;;;;6225845;28;20583;-61
2022/11/17 08:13:04;;;;;;;18.87;16.27;;;11.50;99.90;;;;;;6225797;28;20480;-61
2022/11/17 08:16:08;;;;;;;20.60;15.57;;;11.60;99.90;;;;;;6221821;28;20476;-61
2022/11/17 08:19:13;;;;;;;20.37;16.13;;;11.60;99.90;;;;;;6225863;28;20475;-62
2022/11/17 08:22:16;;;;;;;20.03;16.43;;;11.60;99.90;;;;;;6225816;28;20486;-61
2022/11/17 08:25:23;;;;;;;21.90;17.37;;;11.60;99.90;;;;;;6225802;28;20484;-61
2022/11/17 08:28:26;;;;;;;19.23;15.50;;;11.50;99.90;;;;;;6225305;28;20482;-61
2022/11/17 08:31:29;;;;;;;18.43;15.13;;;11.40;99.90;;;;;;6225797;28;20568;-61
2022/11/17 08:34:32;;;;;;;20.97;15.60;;;11.40;99.90;;;;;;6225563;28;20491;-61
2022/11/17 08:37:35;;;;;;;21.63;15.97;;;11.40;99.90;;;;;;6225933;28;20959;-61
2022/11/17 08:40:40;;;;;;;21.50;16.33;;;11.50;99.90;;;;;;6225533;28;20468;-60
2022/11/17 08:43:43;;;;;;;19.77;16.90;;;11.60;99.90;;;;;;6225644;28;20476;-61
2022/11/17 08:46:47;;;;;;;20.80;16.17;;;11.70;99.90;;;;;;6223711;28;20959;-61
2022/11/17 08:49:50;;;;;;;19.10;15.93;;;11.80;99.90;;;;;;6225167;28;20468;-61
2022/11/17 08:52:54;;;;;;;17.80;15.80;;;11.80;99.90;;;;;;6224965;28;20774;-61
2022/11/17 08:55:58;;;;;;;22.73;15.07;;;11.80;99.90;;;;;;6224869;28;20484;-61
2022/11/17 08:59:02;;;;;;;21.20;15.20;;;11.90;99.90;;;;;;6224545;28;20464;-60
2022/11/17 09:02:05;;;;;;;16.70;13.43;;;11.80;99.90;;;;;;6225319;28;20952;-60
2022/11/17 09:05:09;;;;;;;16.40;14.67;;;11.80;99.90;;;;;;6225189;28;20948;-60
2022/11/17 09:08:13;;;;;;;14.93;13.27;;;11.70;99.90;;;;;;6224994;28;20444;-60
2022/11/17 09:11:38;;;;;;;17.63;13.87;;;11.80;99.90;;;;;;6223440;28;20565;-60
2022/11/17 09:14:41;;;;;;;16.23;14.53;;;11.90;99.90;;;;;;6223845;28;20484;-60
2022/11/17 09:17:46;;;;;;;17.13;15.33;;;11.90;99.90;;;;;;6224137;28;20482;-60
2022/11/17 09:20:49;;;;;;;19.47;14.90;;;11.90;99.90;;;;;;6224321;28;20483;-60
2022/11/17 09:23:53;;;;;;;21.60;15.70;;;11.70;99.90;;;;;;6224120;28;20487;-60
2022/11/17 09:26:57;;;;;;;17.60;15.27;;;11.70;99.90;;;;;;6224219;28;21004;-61
2022/11/17 09:30:00;;;;;;;20.97;15.97;;;11.60;99.90;;;;;;6224254;28;20464;-60
2022/11/17 09:33:04;;;;;;;21.63;17.17;;;11.60;99.90;;;;;;6224738;28;20476;-62
2022/11/17 09:36:08;;;;;;;23.47;18.30;;;11.50;99.90;;;;;;6225051;28;20472;-60
2022/11/17 09:39:11;;;;;;;23.13;17.80;;;11.40;99.90;;;;;;6225875;28;20480;-60
2022/11/17 09:42:18;;;;;;;22.67;16.50;;;11.40;99.90;;;;;;6229794;28;20480;-60
2022/11/17 09:45:25;;;;;;;23.17;16.40;;;11.40;99.90;;;;;;6228656;28;20468;-60
2022/11/17 09:48:36;;;;;;;22.17;18.40;;;11.20;99.90;;;;;;6229231;28;20479;-61
2022/11/17 09:51:47;;;;;;;25.20;17.90;;;11.10;99.90;;;;;;6229035;28;20547;-59
2022/11/17 09:54:54;;;;;;;27.10;19.47;;;11.10;99.90;;;;;;6229462;28;20980;-59
2022/11/17 09:58:08;;;;;;;22.27;18.30;;;11.20;99.90;;;;;;6205071;28;20582;-59
2022/11/17 10:01:12;;;;;;;20.83;16.83;;;11.00;99.90;;;;;;6204995;28;20488;-60
2022/11/17 10:04:17;;;;;;;22.73;19.00;;;11.00;99.90;;;;;;6204777;28;20480;-60
2022/11/17 10:07:20;;;;;;;22.27;19.73;;;11.20;99.90;;;;;;6227992;28;20518;-61
2022/11/17 10:10:36;;;;;;;25.10;18.17;;;11.40;99.90;;;;;;6228559;28;20482;-61
2022/11/17 10:13:40;;;;;;;24.00;19.13;;;11.60;99.90;;;;;;6229186;28;20491;-60
2022/11/17 10:16:46;;;;;;;24.00;18.30;;;11.90;99.90;;;;;;6229270;28;20468;-60
2022/11/17 10:19:49;;;;;;;19.87;17.23;;;12.00;99.90;;;;;;6228951;28;20472;-61
2022/11/17 10:22:54;;;;;;;21.33;17.97;;;12.20;99.90;;;;;;6228389;28;20490;-59
2022/11/17 10:25:58;;;;;;;24.97;18.80;;;12.40;99.90;;;;;;6219988;28;20480;-60
2022/11/17 10:29:11;;;;;;;26.83;18.20;;;12.50;99.90;;;;;;6228297;28;20455;-58
2022/11/17 10:32:15;;;;;;;20.90;17.53;;;12.60;99.90;;;;;;6229185;28;20428;-59
2022/11/17 10:35:21;;;;;;;20.13;16.73;;;12.50;99.90;;;;;;6228490;28;20467;-58
2022/11/17 10:38:27;;;;;;;22.80;17.37;;;12.50;99.90;;;;;;6228690;28;20463;-58
2022/11/17 10:41:38;;;;;;;25.73;18.53;;;12.40;99.90;;;;;;6228522;28;20944;-59
2022/11/17 10:44:50;;;;;;;23.57;18.97;;;12.40;99.90;;;;;;6228425;28;20472;-58
2022/11/17 10:48:09;;;;;;;24.57;17.60;;;13.10;99.90;;;;;;6228247;28;20463;-58
2022/11/17 10:51:23;;;;;;;18.83;15.60;;;16.40;99.90;;;;;;6227622;28;20475;-59
2022/11/17 10:54:26;;;;;;;19.33;17.43;;;20.70;93.60;;;;;;6227919;28;20487;-59
2022/11/17 10:57:29;;;;;;;17.87;16.17;;;23.60;77.30;;;;;;6228108;28;20244;-59
2022/11/17 11:00:36;;;;;;;19.57;17.40;;;25.90;64.20;;;;;;6228072;28;20376;-61
2022/11/17 11:03:49;;;;;;;19.73;17.97;;;28.10;51.50;;;;;;6227686;28;20233;-59
2022/11/17 11:07:07;;;;;;;21.57;19.57;;;28.70;44.90;;;;;;6227811;28;20669;-59
2022/11/17 11:10:16;;;;;;;19.97;18.07;;;26.20;45.70;;;;;;6227901;28;20236;-60
2022/11/17 11:13:28;;;;;;;21.20;19.00;;;23.50;49.90;;;;;;6227759;28;20229;-59
2022/11/17 11:16:32;;;;;;;20.10;18.00;;;21.50;54.10;;;;;;6227511;28;20237;-60
2022/11/17 11:19:35;;;;;;;21.23;19.03;;;20.20;58.20;;;;;;6227686;28;20233;-59
2022/11/17 11:22:46;;;;;;;20.27;18.17;;;19.10;61.50;;;;;;6227376;28;20574;-58
2022/11/17 11:25:52;;;;;;;21.83;18.60;;;18.10;66.20;;;;;;6227181;28;20268;-58
2022/11/17 11:29:06;;;;;;;20.47;17.83;;;18.10;70.00;;;;;;6221976;28;20480;-57
2022/11/17 11:32:23;;;;;;;17.50;15.63;;;18.40;69.20;;;;;;6224135;28;20432;-57
2022/11/17 11:35:43;;;;;;;17.90;16.03;;;19.10;68.30;;;;;;6223580;28;20237;-57
2022/11/17 11:38:55;;;;;;;18.90;16.70;;;18.90;67.40;;;;;;6226676;28;20229;-56
2022/11/17 11:42:22;;;;;;;18.90;16.50;;;18.60;67.80;;;;;;6226675;28;20460;-56
2022/11/17 11:45:45;;;;;;;19.93;17.50;;;18.40;68.40;;;;;;6224579;28;20480;-56
2022/11/17 11:48:53;;;;;;;25.03;18.00;;;17.70;70.00;;;;;;6226503;28;20530;-56
2022/11/17 11:51:57;;;;;;;19.37;16.77;;;17.80;73.30;;;;;;6226791;28;20471;-57
2022/11/17 11:55:03;;;;;;;17.40;15.60;;;21.20;68.70;;;;;;6225988;28;20302;-58
2022/11/17 11:58:15;;;;;;;18.97;17.10;;;25.30;54.80;;;;;;6226669;28;20228;-58
2022/11/17 12:01:21;;;;;;;18.33;16.60;;;28.10;48.00;;;;;;6225171;28;20232;-58
2022/11/17 12:04:43;;;;;;;19.13;17.13;;;29.80;43.20;;;;;;6223911;28;20247;-60
2022/11/17 12:07:52;;;;;;;19.33;17.73;;;32.60;38.60;;;;;;6224935;28;20232;-62
2022/11/17 12:11:58;;;;;;;19.30;17.50;;;31.70;34.30;;;;;;6224746;28;20286;-60
2022/11/17 12:14:24;;;;;;;18.92;17.00;;;32.40;34.70;;;;;;6224849;28;20232;-59
2022/11/17 12:17:27;;;;;;;18.45;16.75;;;34.10;30.90;;;;;;6226387;28;20235;-62
2022/11/17 12:20:52;;;;;;;18.20;16.60;;;33.70;30.30;;;;;;6225891;28;20239;-60
2022/11/17 12:24:16;;;;;;;16.95;15.55;;;33.90;30.30;;;;;;6232172;28;20287;-59
2022/11/17 12:27:42;;;;;;;18.88;17.27;;;35.20;28.70;;;;;;6227713;28;20229;-59
2022/11/17 12:31:03;;;;;;;17.73;16.10;;;35.20;27.60;;;;;;6221778;28;20232;-60
2022/11/17 12:34:27;;;;;;;18.17;16.52;;;34.90;28.30;;;;;;6225479;28;20309;-60
2022/11/17 12:37:32;;;;;;;19.08;17.48;;;35.10;27.10;;;;;;6225725;28;20565;-59
2022/11/17 12:40:43;;;;;;;17.73;15.98;;;35.00;27.60;;;;;;6225123;28;20236;-59
2022/11/17 12:43:46;;;;;;;17.70;16.20;;;34.30;27.50;;;;;;6225568;28;20232;-59
2022/11/17 12:46:55;;;;;;;16.38;14.95;;;33.90;28.30;;;;;;6225271;28;20239;-58
2022/11/17 12:50:37;;;;;;;17.50;16.00;;;33.80;27.90;;;;;;6205267;28;20228;-60
2022/11/17 12:53:59;;;;;;;18.20;16.58;;;33.40;28.40;;;;;;6225015;28;20236;-60
2022/11/17 12:57:08;;;;;;;17.98;16.58;;;33.50;28.10;;;;;;6177018;28;20286;-60
2022/11/17 13:00:17;;;;;;;17.35;15.93;;;32.40;29.10;;;;;;6176950;28;20545;-60
2022/11/17 13:03:28;;;;;;;17.30;15.68;;;32.80;28.80;;;;;;6176908;28;20242;-60
2022/11/17 13:06:31;;;;;;;15.48;14.07;;;31.50;29.70;;;;;;6176931;28;20245;-60
2022/11/17 13:09:40;;;;;;;15.47;14.07;;;31.70;29.50;;;;;;6176526;28;20230;-60
2022/11/17 13:12:43;;;;;;;13.50;12.30;;;30.40;30.20;;;;;;6176867;28;20697;-60
2022/11/17 13:15:51;;;;;;;15.17;13.77;;;29.30;32.00;;;;;;6176306;28;20244;-60
2022/11/17 13:18:54;;;;;;;13.23;11.97;;;29.00;32.30;;;;;;6176484;28;20225;-60
2022/11/17 13:22:00;;;;;;;13.57;11.13;;;27.20;34.00;;;;;;6176338;28;20586;-60
2022/11/17 13:25:21;;;;;;;13.30;11.90;;;24.60;38.20;;;;;;6176590;28;20245;-60
2022/11/17 13:28:27;;;;;;;11.77;10.57;;;22.80;41.50;;;;;;6176103;28;20574;-58
2022/11/17 13:31:30;;;;;;;11.20;10.00;;;21.40;44.00;;;;;;6176424;28;20305;-59
2022/11/17 13:34:33;;;;;;;12.40;11.20;;;20.20;46.50;;;;;;6172114;28;20324;-60
2022/11/17 13:37:36;;;;;;;11.37;10.20;;;19.60;48.60;;;;;;6175947;28;20305;-60
2022/11/17 13:40:42;;;;;;;12.53;11.27;;;19.00;50.00;;;;;;6176508;28;20226;-60
2022/11/17 13:43:46;;;;;;;12.97;11.50;;;18.50;52.00;;;;;;6175597;28;20233;-60
2022/11/17 13:46:49;;;;;;;14.27;11.00;;;17.90;53.60;;;;;;6175953;28;20485;-59
2022/11/17 13:49:52;;;;;;;11.80;10.60;;;17.50;54.90;;;;;;6155185;28;20469;-60
2022/11/17 13:52:58;;;;;;;11.50;10.30;;;17.10;57.20;;;;;;6175772;28;20474;-60
2022/11/17 13:56:02;;;;;;;13.53;10.60;;;16.70;57.80;;;;;;6210320;28;21105;-58
2022/11/17 13:59:17;;;;;;;10.93;9.80;;;16.30;59.40;;;;;;6223924;28;20526;-58
2022/11/17 14:02:27;;;;;;;12.67;11.00;;;16.00;61.30;;;;;;6224290;28;20417;-58
2022/11/17 14:05:32;;;;;;;14.47;10.43;;;15.70;63.70;;;;;;6224044;28;20472;-57
2022/11/17 14:08:37;;;;;;;11.77;10.57;;;15.40;66.30;;;;;;6224403;28;20490;-57
2022/11/17 14:11:42;;;;;;;15.27;10.33;;;15.20;68.60;;;;;;6224609;28;20472;-58
2022/11/17 14:14:45;;;;;;;14.67;10.90;;;15.20;70.90;;;;;;6224338;28;20805;-57
2022/11/17 14:17:50;;;;;;;12.67;10.70;;;15.20;72.10;;;;;;6224568;28;20505;-57
2022/11/17 14:21:06;;;;;;;14.90;10.93;;;15.10;73.00;;;;;;6223919;28;20491;-57
2022/11/17 14:24:12;;;;;;;14.37;12.20;;;15.00;74.30;;;;;;6224045;28;20478;-57
2022/11/17 14:27:40;;;;;;;13.50;11.40;;;14.80;76.40;;;;;;6226604;28;20476;-58
2022/11/17 14:30:44;;;;;;;13.67;11.30;;;14.50;78.70;;;;;;6228550;28;20943;-58
2022/11/17 14:33:47;;;;;;;13.47;10.97;;;14.40;80.70;;;;;;6228202;28;20464;-58
2022/11/17 14:36:53;;;;;;;10.70;9.23;;;14.20;82.50;;;;;;6223758;28;20479;-57
2022/11/17 14:39:57;;;;;;;12.53;10.30;;;14.00;84.50;;;;;;6228740;28;20476;-58
2022/11/17 14:43:01;;;;;;;12.37;11.07;;;13.80;86.90;;;;;;6228455;28;20476;-58
2022/11/17 14:46:05;;;;;;;12.10;10.80;;;13.60;88.70;;;;;;6228061;28;20987;-58
2022/11/17 14:49:08;;;;;;;12.20;10.60;;;13.50;90.40;;;;;;6210086;28;20473;-58
2022/11/17 14:52:11;;;;;;;11.87;10.37;;;13.30;91.30;;;;;;6225597;28;21030;-58
2022/11/17 14:55:14;;;;;;;13.10;10.50;;;13.20;92.10;;;;;;6227416;28;20534;-57
2022/11/17 14:58:19;;;;;;;11.70;10.50;;;13.10;92.90;;;;;;6227878;28;20807;-57
2022/11/17 15:01:27;;;;;;;12.10;9.80;;;13.10;93.70;;;;;;6228144;28;20478;-57
2022/11/17 15:04:30;;;;;;;12.43;11.13;;;13.00;94.10;;;;;;6228130;28;20855;-57
2022/11/17 15:07:55;;;;;;;14.50;13.00;;;12.90;94.80;;;;;;6227895;28;20619;-57
2022/11/17 15:10:58;;;;;;;12.97;11.60;;;12.80;95.70;;;;;;6227867;28;20472;-56
2022/11/17 15:14:03;;;;;;;12.50;11.20;;;12.60;96.20;;;;;;6228355;28;20503;-57
2022/11/17 15:17:06;;;;;;;16.27;13.73;;;12.50;97.00;;;;;;6228063;28;20459;-57
2022/11/17 15:20:17;;;;;;;15.30;11.93;;;12.40;97.60;;;;;;6228066;28;20440;-57
2022/11/17 15:23:20;;;;;;;17.73;14.13;;;12.30;98.10;;;;;;6227757;28;20812;-58
2022/11/17 15:26:23;;;;;;;13.77;12.30;;;12.30;98.70;;;;;;6227756;28;20496;-57
2022/11/17 15:29:28;;;;;;;14.30;11.77;;;12.20;99.10;;;;;;6227262;28;20460;-58
2022/11/17 15:32:31;;;;;;;13.90;12.50;;;12.20;99.50;;;;;;6228186;28;20468;-57
2022/11/17 15:35:34;;;;;;;15.63;13.93;;;12.10;99.60;;;;;;6227811;28;20476;-57
2022/11/17 15:38:38;;;;;;;13.30;11.20;;;12.00;99.80;;;;;;6226873;28;20468;-57
2022/11/17 15:41:42;;;;;;;12.53;11.00;;;11.90;99.90;;;;;;6227027;28;20529;-57
2022/11/17 15:44:46;;;;;;;17.80;13.10;;;11.80;99.90;;;;;;6226941;28;20476;-58
2022/11/17 15:47:49;;;;;;;15.30;12.20;;;11.70;99.90;;;;;;6227340;28;20468;-57
2022/11/17 15:50:56;;;;;;;19.20;14.97;;;11.70;99.90;;;;;;6226828;28;20527;-57
2022/11/17 15:54:00;;;;;;;17.60;13.73;;;11.60;99.90;;;;;;6226598;28;20487;-56
2022/11/17 15:57:03;;;;;;;15.23;13.37;;;11.60;99.90;;;;;;6226841;28;20484;-56
2022/11/17 16:00:10;;;;;;;14.97;12.83;;;11.50;99.90;;;;;;6226664;28;20479;-56
2022/11/17 16:03:13;;;;;;;17.17;14.80;;;11.50;99.90;;;;;;6226315;28;20994;-58
2022/11/17 16:06:16;;;;;;;16.70;13.87;;;11.40;99.90;;;;;;6226683;28;20483;-57
2022/11/17 16:09:19;;;;;;;14.07;12.10;;;11.40;99.90;;;;;;6226447;28;20468;-57
2022/11/17 16:12:22;;;;;;;15.53;12.70;;;11.30;99.90;;;;;;6226199;28;20468;-57
2022/11/17 16:15:27;;;;;;;17.20;15.10;;;11.20;99.90;;;;;;6226029;28;20944;-57